Pacific - Georgia Basin: Past 24 Hour Conditions

 

Entrance Island

08:00 AM PDT 30 July 2014
This table is a summary of hourly weather conditions for the past 24 hours.
Date / Time
(PDT)
Wind(knots) Conditions Visibility(km) Pressure(kPa) Air tempC) Relative humidity(%) Dew pointC) Humidex
30 July 2014
8:00 NNW 14 N/A N/A 102.0 19 75 14 *
7:00 NNW 16 N/A N/A 102.0 19 78 15 *
6:00 NNW 15 N/A N/A 102.0 19 78 15 *
5:00 NW 18 N/A N/A 101.9 19 78 15 *
4:00 NNW 18 N/A N/A 101.9 20 76 15 *
3:00 NW 17 N/A N/A 101.8 20 76 16 25
2:00 NW 13 N/A N/A 101.8 21 77 16 25
1:00 N 5 N/A N/A 101.8 20 84 17 26
0:00 SSE 5 N/A N/A 101.8 21 83 17 26
29 July 2014
23:00 ESE 3 N/A N/A 101.7 21 83 18 27
22:00 NNW 2 N/A N/A 101.7 21 76 17 27
21:00 WNW 1 N/A N/A 101.7 24 53 14 27
20:00 SSE 3 N/A N/A 101.7 23 65 16 28
19:00 SSE 2 N/A N/A 101.7 23 71 18 29
18:00 SSE 4 N/A N/A 101.7 23 63 16 27
17:00 SSE 3 N/A N/A 101.8 24 57 15 28
16:00 SE 3 N/A N/A 101.9 24 56 15 28
15:00 SE 4 N/A N/A 101.9 24 64 17 29
14:00 SE 6 N/A N/A 102.0 23 62 15 27
13:00 SE 5 N/A N/A 102.0 22 67 16 27
12:00 SE 6 N/A N/A 102.0 22 72 16 27
11:00 SE 6 N/A N/A 102.0 21 74 16 25
10:00 SE 4 N/A N/A 102.0 21 66 14 *
9:00 SE 4 N/A N/A 102.0 21 67 14 *
8:00 SSE 2 N/A N/A 102.0 19 74 15 *
 
Map of Pacific - Georgia Basin marine weather areas Tsawwassen Ferry Terminal Sentry Shoal - 46131 Halibut Bank - 46146 La Perouse Bank - 46206 Discovery Island Esquimalt Harbour Kelp Reefs Malahat Race Rocks Lightstation Saturna Island Sheringham Point University of Victoria Victoria Gonzales Victoria Int'l Airport Ballenas Islands Campbell River Airport Comox Airport Entrance Island Fanny Island Nanaimo Airport Sisters Islets Estevan Point Tofino Airport Grief Point Powell River Airport Sechelt Point Atkinson Sand Heads Lightstation Vancouver Harbour Vancouver Int'l Airport West Vancouver Port Alberni Howe Sound - Pam Rocks Squamish Airport